CEB822 RPUV-RPLL
Flight info
| Callsign | CEB822 |
|---|---|
| Flight time | 0h 45m |
| Altitude | 24000 |
| Route | NGA W9 AKDAP AKDAP1A |
| Aircraft | A20N/M-SDE2E3FGHIRWXY/LB1 |
Departure
| Time | 2026-05-06 11:36 |
|---|---|
| Airport | Virac Airport (RPUV) |
Arrival
| Time | 2026-05-06 12:21 |
|---|---|
| Airport | Ninoy Aquino International Airport (RPLL) |
| Time | Latitude | Longitude | Altitude | Speed | Heading |
|---|---|---|---|---|---|
| 2026-05-06 11:21 | 13.57976 | 124.21232 | 116 ft | 0 kts | 180° |
| 2026-05-06 11:26 | 13.57974 | 124.21231 | 116 ft | 0 kts | 199° |
| 2026-05-06 11:26 | 13.57972 | 124.21228 | 116 ft | 0 kts | 232° |
| 2026-05-06 11:26 | 13.57968 | 124.21223 | 116 ft | 1 kts | 243° |
| 2026-05-06 11:26 | 13.57966 | 124.21216 | 116 ft | 1 kts | 249° |
| 2026-05-06 11:27 | 13.57962 | 124.21204 | 116 ft | 2 kts | 249° |
| 2026-05-06 11:27 | 13.57954 | 124.21186 | 117 ft | 3 kts | 248° |
| 2026-05-06 11:27 | 13.57946 | 124.21168 | 117 ft | 2 kts | 243° |
| 2026-05-06 11:27 | 13.57944 | 124.21149 | 117 ft | 3 kts | 294° |
| 2026-05-06 11:28 | 13.57958 | 124.21132 | 118 ft | 3 kts | 312° |
| 2026-05-06 11:28 | 13.57971 | 124.21116 | 118 ft | 2 kts | 307° |
| 2026-05-06 11:28 | 13.57980 | 124.21101 | 119 ft | 2 kts | 302° |
| 2026-05-06 11:28 | 13.57988 | 124.21089 | 119 ft | 1 kts | 302° |
| 2026-05-06 11:29 | 13.57995 | 124.21078 | 120 ft | 2 kts | 302° |
| 2026-05-06 11:29 | 13.58003 | 124.21059 | 120 ft | 3 kts | 280° |
| 2026-05-06 11:29 | 13.57998 | 124.21033 | 121 ft | 3 kts | 245° |
| 2026-05-06 11:29 | 13.57985 | 124.21007 | 122 ft | 4 kts | 240° |
| 2026-05-06 11:30 | 13.57966 | 124.20975 | 123 ft | 6 kts | 239° |
| 2026-05-06 11:30 | 13.57941 | 124.20931 | 124 ft | 7 kts | 240° |
| 2026-05-06 11:30 | 13.57911 | 124.20877 | 126 ft | 9 kts | 240° |
| 2026-05-06 11:30 | 13.57877 | 124.20814 | 128 ft | 10 kts | 240° |
| 2026-05-06 11:31 | 13.57842 | 124.20751 | 130 ft | 10 kts | 240° |
| 2026-05-06 11:31 | 13.57808 | 124.20689 | 131 ft | 9 kts | 240° |
| 2026-05-06 11:31 | 13.57775 | 124.20629 | 133 ft | 9 kts | 240° |
| 2026-05-06 11:31 | 13.57746 | 124.20576 | 135 ft | 8 kts | 240° |
| 2026-05-06 11:32 | 13.57719 | 124.20525 | 137 ft | 8 kts | 242° |
| 2026-05-06 11:32 | 13.57691 | 124.20473 | 139 ft | 8 kts | 240° |
| 2026-05-06 11:32 | 13.57661 | 124.20421 | 141 ft | 8 kts | 240° |
| 2026-05-06 11:32 | 13.57631 | 124.20367 | 143 ft | 8 kts | 240° |
| 2026-05-06 11:33 | 13.57598 | 124.20307 | 143 ft | 10 kts | 240° |
| 2026-05-06 11:33 | 13.57558 | 124.20235 | 144 ft | 11 kts | 240° |
| 2026-05-06 11:33 | 13.57518 | 124.20161 | 147 ft | 11 kts | 240° |
| 2026-05-06 11:33 | 13.57477 | 124.20088 | 148 ft | 12 kts | 241° |
| 2026-05-06 11:34 | 13.57432 | 124.20006 | 148 ft | 13 kts | 240° |
| 2026-05-06 11:34 | 13.57387 | 124.19924 | 151 ft | 12 kts | 240° |
| 2026-05-06 11:34 | 13.57358 | 124.19871 | 152 ft | 5 kts | 240° |
| 2026-05-06 11:34 | 13.57338 | 124.19836 | 153 ft | 5 kts | 236° |
| 2026-05-06 11:35 | 13.57317 | 124.19812 | 153 ft | 2 kts | 242° |
| 2026-05-06 11:35 | 13.57326 | 124.19810 | 153 ft | 2 kts | 36° |
| 2026-05-06 11:35 | 13.57335 | 124.19827 | 153 ft | 0 kts | 62° |
| 2026-05-06 11:36 | 13.57468 | 124.20072 | 148 ft | 82 kts | 60° |
| 2026-05-06 11:36 | 13.57870 | 124.20803 | 167 ft | 146 kts | 60° |
| 2026-05-06 11:36 | 13.58376 | 124.21712 | 872 ft | 146 kts | 60° |
| 2026-05-06 11:36 | 13.58749 | 124.22627 | 1661 ft | 140 kts | 84° |
| 2026-05-06 11:37 | 13.58458 | 124.23483 | 2387 ft | 133 kts | 136° |
| 2026-05-06 11:37 | 13.57589 | 124.23769 | 2917 ft | 141 kts | 177° |
| 2026-05-06 11:37 | 13.56564 | 124.23777 | 3313 ft | 150 kts | 158° |
| 2026-05-06 11:37 | 13.55725 | 124.24376 | 3711 ft | 154 kts | 126° |
| 2026-05-06 11:38 | 13.54898 | 124.25167 | 4064 ft | 176 kts | 152° |
| 2026-05-06 11:38 | 13.53602 | 124.25209 | 4401 ft | 205 kts | 199° |
| 2026-05-06 11:38 | 13.52517 | 124.24191 | 4765 ft | 227 kts | 243° |
| 2026-05-06 11:38 | 13.52307 | 124.22548 | 5068 ft | 247 kts | 286° |
| 2026-05-06 11:39 | 13.52969 | 124.20874 | 5517 ft | 263 kts | 296° |
| 2026-05-06 11:39 | 13.53648 | 124.19045 | 5986 ft | 282 kts | 288° |
| 2026-05-06 11:39 | 13.54112 | 124.17046 | 6568 ft | 295 kts | 281° |
| 2026-05-06 11:39 | 13.54415 | 124.14955 | 7368 ft | 298 kts | 277° |
| 2026-05-06 11:40 | 13.54619 | 124.12852 | 8167 ft | 300 kts | 276° |
| 2026-05-06 11:40 | 13.54770 | 124.10746 | 8934 ft | 302 kts | 274° |
| 2026-05-06 11:40 | 13.54895 | 124.08583 | 9690 ft | 304 kts | 274° |
| 2026-05-06 11:40 | 13.55004 | 124.06419 | 10384 ft | 308 kts | 273° |
| 2026-05-06 11:41 | 13.55108 | 124.04178 | 10764 ft | 323 kts | 273° |
| 2026-05-06 11:41 | 13.55212 | 124.01805 | 11060 ft | 340 kts | 273° |
| 2026-05-06 11:41 | 13.55319 | 123.99316 | 11340 ft | 357 kts | 273° |
| 2026-05-06 11:41 | 13.55428 | 123.96735 | 11628 ft | 372 kts | 273° |
| 2026-05-06 11:42 | 13.55541 | 123.94041 | 12132 ft | 379 kts | 273° |
| 2026-05-06 11:42 | 13.55653 | 123.91343 | 12726 ft | 382 kts | 273° |
| 2026-05-06 11:42 | 13.55765 | 123.88630 | 13317 ft | 384 kts | 273° |
| 2026-05-06 11:42 | 13.55871 | 123.86054 | 13858 ft | 387 kts | 273° |
| 2026-05-06 11:43 | 13.55943 | 123.84322 | 14220 ft | 388 kts | 273° |
| 2026-05-06 11:43 | 13.56056 | 123.81579 | 14766 ft | 391 kts | 273° |
| 2026-05-06 11:43 | 13.56172 | 123.78751 | 15290 ft | 394 kts | 273° |
| 2026-05-06 11:44 | 13.56402 | 123.73124 | 16295 ft | 400 kts | 273° |
| 2026-05-06 11:44 | 13.56519 | 123.70248 | 16764 ft | 403 kts | 273° |
| 2026-05-06 11:44 | 13.56636 | 123.67366 | 17223 ft | 407 kts | 273° |
| 2026-05-06 11:44 | 13.56753 | 123.64472 | 17675 ft | 410 kts | 273° |
| 2026-05-06 11:45 | 13.56871 | 123.61536 | 18126 ft | 414 kts | 273° |
| 2026-05-06 11:45 | 13.56990 | 123.58580 | 18572 ft | 417 kts | 273° |
| 2026-05-06 11:45 | 13.57109 | 123.55607 | 19018 ft | 419 kts | 273° |
| 2026-05-06 11:45 | 13.57228 | 123.52609 | 19475 ft | 421 kts | 273° |
| 2026-05-06 11:46 | 13.57348 | 123.49588 | 19918 ft | 424 kts | 273° |
| 2026-05-06 11:46 | 13.57467 | 123.46561 | 20358 ft | 426 kts | 273° |
| 2026-05-06 11:46 | 13.57587 | 123.43509 | 20805 ft | 428 kts | 273° |
| 2026-05-06 11:46 | 13.57706 | 123.40455 | 21238 ft | 431 kts | 273° |
| 2026-05-06 11:47 | 13.57825 | 123.37419 | 21660 ft | 433 kts | 273° |
| 2026-05-06 11:47 | 13.57947 | 123.34306 | 22082 ft | 435 kts | 273° |
| 2026-05-06 11:47 | 13.58075 | 123.31161 | 22492 ft | 438 kts | 274° |
| 2026-05-06 11:47 | 13.58467 | 123.28060 | 22888 ft | 440 kts | 282° |
| 2026-05-06 11:48 | 13.59278 | 123.25056 | 23314 ft | 440 kts | 290° |
| 2026-05-06 11:48 | 13.60481 | 123.22159 | 23723 ft | 442 kts | 296° |
| 2026-05-06 11:48 | 13.61831 | 123.19322 | 23901 ft | 443 kts | 297° |
| 2026-05-06 11:48 | 13.63205 | 123.16494 | 23901 ft | 442 kts | 297° |
| 2026-05-06 11:49 | 13.64590 | 123.13640 | 23904 ft | 442 kts | 297° |
| 2026-05-06 11:49 | 13.65960 | 123.10798 | 23909 ft | 442 kts | 297° |
| 2026-05-06 11:49 | 13.67317 | 123.07972 | 23915 ft | 442 kts | 297° |
| 2026-05-06 11:49 | 13.68661 | 123.05163 | 23914 ft | 441 kts | 296° |
| 2026-05-06 11:50 | 13.70017 | 123.02322 | 23914 ft | 441 kts | 296° |
| 2026-05-06 11:50 | 13.71369 | 122.99487 | 23914 ft | 441 kts | 296° |
| 2026-05-06 11:50 | 13.72709 | 122.96675 | 23914 ft | 441 kts | 296° |
| 2026-05-06 11:50 | 13.74066 | 122.93823 | 23910 ft | 441 kts | 296° |
| 2026-05-06 11:51 | 13.75398 | 122.91024 | 23907 ft | 441 kts | 296° |
| 2026-05-06 11:51 | 13.76750 | 122.88180 | 23907 ft | 441 kts | 296° |
| 2026-05-06 11:51 | 13.78104 | 122.85331 | 23907 ft | 441 kts | 296° |
| 2026-05-06 11:51 | 13.79434 | 122.82532 | 23909 ft | 441 kts | 296° |
| 2026-05-06 11:52 | 13.80794 | 122.79671 | 23912 ft | 441 kts | 296° |
| 2026-05-06 11:52 | 13.82142 | 122.76835 | 23916 ft | 441 kts | 296° |
| 2026-05-06 11:52 | 13.83491 | 122.74007 | 23919 ft | 441 kts | 296° |
| 2026-05-06 11:52 | 13.84844 | 122.71169 | 23921 ft | 441 kts | 296° |
| 2026-05-06 11:53 | 13.86201 | 122.68317 | 23924 ft | 441 kts | 296° |
| 2026-05-06 11:53 | 13.87547 | 122.65482 | 23925 ft | 442 kts | 296° |
| 2026-05-06 11:53 | 13.88895 | 122.62643 | 23925 ft | 442 kts | 296° |
| 2026-05-06 11:53 | 13.90233 | 122.59821 | 23926 ft | 442 kts | 296° |
| 2026-05-06 11:54 | 13.91586 | 122.56967 | 23926 ft | 442 kts | 296° |
| 2026-05-06 11:54 | 13.92930 | 122.54132 | 23925 ft | 442 kts | 296° |
| 2026-05-06 11:54 | 13.94275 | 122.51293 | 23922 ft | 442 kts | 296° |
| 2026-05-06 11:54 | 13.95628 | 122.48437 | 23918 ft | 442 kts | 296° |
| 2026-05-06 11:55 | 13.96971 | 122.45599 | 23917 ft | 442 kts | 296° |
| 2026-05-06 11:55 | 13.98309 | 122.42773 | 23916 ft | 442 kts | 296° |
| 2026-05-06 11:55 | 13.99657 | 122.39922 | 23914 ft | 442 kts | 296° |
| 2026-05-06 11:55 | 14.00994 | 122.37096 | 23913 ft | 442 kts | 296° |
| 2026-05-06 11:56 | 14.02343 | 122.34240 | 23911 ft | 443 kts | 296° |
| 2026-05-06 11:56 | 14.03694 | 122.31381 | 23911 ft | 443 kts | 296° |
| 2026-05-06 11:56 | 14.05034 | 122.28542 | 23909 ft | 443 kts | 296° |
| 2026-05-06 11:56 | 14.06384 | 122.25685 | 23907 ft | 443 kts | 296° |
| 2026-05-06 11:57 | 14.07720 | 122.22852 | 23907 ft | 443 kts | 296° |
| 2026-05-06 11:57 | 14.09063 | 122.20005 | 23906 ft | 442 kts | 296° |
| 2026-05-06 11:57 | 14.10412 | 122.17143 | 23906 ft | 442 kts | 296° |
| 2026-05-06 11:57 | 14.11748 | 122.14306 | 23906 ft | 442 kts | 296° |
| 2026-05-06 11:58 | 14.13105 | 122.11424 | 23906 ft | 442 kts | 296° |
| 2026-05-06 11:58 | 14.14430 | 122.08610 | 23906 ft | 442 kts | 296° |
| 2026-05-06 11:58 | 14.15785 | 122.05730 | 23905 ft | 442 kts | 296° |
| 2026-05-06 11:58 | 14.17111 | 122.02911 | 23905 ft | 442 kts | 296° |
| 2026-05-06 11:59 | 14.18468 | 122.00022 | 23905 ft | 442 kts | 296° |
| 2026-05-06 11:59 | 14.19806 | 121.97176 | 23837 ft | 443 kts | 296° |
| 2026-05-06 11:59 | 14.21137 | 121.94304 | 23358 ft | 440 kts | 295° |
| 2026-05-06 11:59 | 14.22315 | 121.91419 | 22849 ft | 437 kts | 291° |
| 2026-05-06 12:00 | 14.23326 | 121.88494 | 22329 ft | 433 kts | 289° |
| 2026-05-06 12:00 | 14.24272 | 121.85561 | 21809 ft | 430 kts | 289° |
| 2026-05-06 12:00 | 14.25191 | 121.82678 | 21287 ft | 427 kts | 289° |
| 2026-05-06 12:00 | 14.26113 | 121.79787 | 20761 ft | 424 kts | 289° |
| 2026-05-06 12:01 | 14.27031 | 121.76910 | 20234 ft | 421 kts | 289° |
| 2026-05-06 12:01 | 14.27939 | 121.74065 | 19711 ft | 418 kts | 289° |
| 2026-05-06 12:01 | 14.28851 | 121.71211 | 19183 ft | 416 kts | 289° |
| 2026-05-06 12:01 | 14.29751 | 121.68394 | 18657 ft | 413 kts | 289° |
| 2026-05-06 12:02 | 14.30638 | 121.65620 | 18139 ft | 411 kts | 289° |
| 2026-05-06 12:02 | 14.31529 | 121.62837 | 17617 ft | 408 kts | 289° |
| 2026-05-06 12:02 | 14.32419 | 121.60050 | 17095 ft | 406 kts | 289° |
| 2026-05-06 12:02 | 14.33296 | 121.57304 | 16577 ft | 403 kts | 289° |
| 2026-05-06 12:03 | 14.34027 | 121.54536 | 16047 ft | 401 kts | 281° |
| 2026-05-06 12:03 | 14.34443 | 121.51711 | 15545 ft | 397 kts | 278° |
| 2026-05-06 12:03 | 14.34782 | 121.48940 | 15092 ft | 392 kts | 278° |
| 2026-05-06 12:03 | 14.35106 | 121.46149 | 14575 ft | 390 kts | 277° |
| 2026-05-06 12:04 | 14.35421 | 121.43390 | 14038 ft | 387 kts | 277° |
| 2026-05-06 12:04 | 14.35729 | 121.40669 | 13525 ft | 384 kts | 277° |
| 2026-05-06 12:04 | 14.36036 | 121.37932 | 13008 ft | 382 kts | 277° |
| 2026-05-06 12:04 | 14.36334 | 121.35241 | 12494 ft | 379 kts | 277° |
| 2026-05-06 12:05 | 14.36628 | 121.32567 | 11990 ft | 376 kts | 277° |
| 2026-05-06 12:05 | 14.36918 | 121.29879 | 11469 ft | 373 kts | 277° |
| 2026-05-06 12:05 | 14.37201 | 121.27240 | 10959 ft | 371 kts | 277° |
| 2026-05-06 12:05 | 14.37479 | 121.24632 | 10492 ft | 366 kts | 277° |
| 2026-05-06 12:06 | 14.37751 | 121.22063 | 10266 ft | 354 kts | 277° |
| 2026-05-06 12:06 | 14.38007 | 121.19591 | 10053 ft | 342 kts | 277° |
| 2026-05-06 12:06 | 14.38252 | 121.17181 | 9869 ft | 331 kts | 277° |
| 2026-05-06 12:06 | 14.38488 | 121.14843 | 9656 ft | 321 kts | 277° |
| 2026-05-06 12:07 | 14.38712 | 121.12590 | 9485 ft | 311 kts | 277° |
| 2026-05-06 12:07 | 14.38926 | 121.10410 | 9280 ft | 304 kts | 277° |
| 2026-05-06 12:07 | 14.39130 | 121.08262 | 8933 ft | 302 kts | 277° |
| 2026-05-06 12:07 | 14.39331 | 121.06126 | 8560 ft | 301 kts | 277° |
| 2026-05-06 12:08 | 14.39531 | 121.03989 | 8178 ft | 299 kts | 277° |
| 2026-05-06 12:08 | 14.39734 | 121.01852 | 7865 ft | 295 kts | 277° |
| 2026-05-06 12:08 | 14.39937 | 120.99778 | 7524 ft | 293 kts | 277° |
| 2026-05-06 12:08 | 14.40146 | 120.97684 | 7172 ft | 290 kts | 277° |
| 2026-05-06 12:09 | 14.40353 | 120.95650 | 6879 ft | 287 kts | 277° |
| 2026-05-06 12:09 | 14.40561 | 120.93587 | 6523 ft | 285 kts | 277° |
| 2026-05-06 12:09 | 14.40763 | 120.91585 | 6189 ft | 282 kts | 277° |
| 2026-05-06 12:09 | 14.40961 | 120.89573 | 5847 ft | 280 kts | 277° |
| 2026-05-06 12:10 | 14.41153 | 120.87577 | 5450 ft | 281 kts | 277° |
| 2026-05-06 12:10 | 14.41343 | 120.85574 | 5077 ft | 281 kts | 277° |
| 2026-05-06 12:10 | 14.41542 | 120.83598 | 4767 ft | 278 kts | 280° |
| 2026-05-06 12:10 | 14.42174 | 120.81740 | 4377 ft | 273 kts | 306° |
| 2026-05-06 12:11 | 14.43480 | 120.80363 | 4009 ft | 268 kts | 323° |
| 2026-05-06 12:11 | 14.44975 | 120.79224 | 3662 ft | 266 kts | 327° |
| 2026-05-06 12:11 | 14.46480 | 120.78141 | 3469 ft | 258 kts | 327° |
| 2026-05-06 12:11 | 14.47933 | 120.77099 | 3304 ft | 250 kts | 327° |
| 2026-05-06 12:12 | 14.49332 | 120.76093 | 3146 ft | 241 kts | 327° |
| 2026-05-06 12:12 | 14.50697 | 120.75109 | 3013 ft | 232 kts | 327° |
| 2026-05-06 12:12 | 14.51990 | 120.74174 | 3006 ft | 225 kts | 327° |
| 2026-05-06 12:12 | 14.53268 | 120.73252 | 3011 ft | 225 kts | 327° |
| 2026-05-06 12:13 | 14.54572 | 120.72308 | 3012 ft | 226 kts | 327° |
| 2026-05-06 12:13 | 14.55856 | 120.71390 | 3013 ft | 225 kts | 332° |
| 2026-05-06 12:13 | 14.57321 | 120.70976 | 3002 ft | 216 kts | 6° |
| 2026-05-06 12:13 | 14.58682 | 120.71464 | 3000 ft | 201 kts | 36° |
| 2026-05-06 12:14 | 14.59607 | 120.72532 | 3002 ft | 200 kts | 63° |
| 2026-05-06 12:14 | 14.60033 | 120.73900 | 3018 ft | 202 kts | 74° |
| 2026-05-06 12:14 | 14.60361 | 120.75313 | 3011 ft | 201 kts | 74° |
| 2026-05-06 12:14 | 14.60688 | 120.76708 | 3009 ft | 202 kts | 74° |
| 2026-05-06 12:15 | 14.61026 | 120.78117 | 3005 ft | 202 kts | 74° |
| 2026-05-06 12:15 | 14.61366 | 120.79522 | 3004 ft | 201 kts | 74° |
| 2026-05-06 12:15 | 14.61710 | 120.80927 | 2971 ft | 201 kts | 73° |
| 2026-05-06 12:15 | 14.62050 | 120.82313 | 2906 ft | 200 kts | 73° |
| 2026-05-06 12:16 | 14.62382 | 120.83665 | 2910 ft | 184 kts | 73° |
| 2026-05-06 12:16 | 14.62682 | 120.84895 | 2813 ft | 170 kts | 73° |
| 2026-05-06 12:16 | 14.62960 | 120.86030 | 2714 ft | 156 kts | 72° |
| 2026-05-06 12:16 | 14.63181 | 120.87109 | 2706 ft | 155 kts | 86° |
| 2026-05-06 12:17 | 14.62782 | 120.88142 | 2697 ft | 162 kts | 128° |
| 2026-05-06 12:17 | 14.62008 | 120.89002 | 2714 ft | 163 kts | 129° |
| 2026-05-06 12:17 | 14.61232 | 120.89873 | 2616 ft | 162 kts | 129° |
| 2026-05-06 12:17 | 14.60481 | 120.90736 | 2450 ft | 160 kts | 128° |
| 2026-05-06 12:18 | 14.59746 | 120.91592 | 2257 ft | 158 kts | 128° |
| 2026-05-06 12:18 | 14.59025 | 120.92439 | 2053 ft | 158 kts | 128° |
| 2026-05-06 12:18 | 14.58306 | 120.93288 | 1867 ft | 152 kts | 128° |
| 2026-05-06 12:18 | 14.57635 | 120.94078 | 1636 ft | 142 kts | 128° |
| 2026-05-06 12:19 | 14.56988 | 120.94843 | 1460 ft | 141 kts | 128° |
| 2026-05-06 12:19 | 14.56343 | 120.95608 | 1281 ft | 139 kts | 129° |
| 2026-05-06 12:19 | 14.55705 | 120.96362 | 1098 ft | 138 kts | 129° |
| 2026-05-06 12:19 | 14.55078 | 120.97105 | 919 ft | 137 kts | 129° |
| 2026-05-06 12:20 | 14.54459 | 120.97842 | 735 ft | 136 kts | 126° |
| 2026-05-06 12:20 | 14.53882 | 120.98615 | 570 ft | 134 kts | 127° |
| 2026-05-06 12:20 | 14.53305 | 120.99371 | 383 ft | 132 kts | 130° |
| 2026-05-06 12:20 | 14.52682 | 121.00069 | 235 ft | 133 kts | 132° |
| 2026-05-06 12:21 | 14.52043 | 121.00746 | 84 ft | 129 kts | 134° |
| 2026-05-06 12:21 | 14.51567 | 121.01228 | 82 ft | 52 kts | 135° |
| 2026-05-06 12:21 | 14.51430 | 121.01370 | 82 ft | 18 kts | 135° |
| 2026-05-06 12:21 | 14.51370 | 121.01428 | 82 ft | 10 kts | 136° |
| 2026-05-06 12:22 | 14.51336 | 121.01490 | 82 ft | 10 kts | 81° |
| 2026-05-06 12:22 | 14.51365 | 121.01530 | 82 ft | 4 kts | 43° |
| 2026-05-06 12:22 | 14.51388 | 121.01553 | 82 ft | 5 kts | 43° |
| 2026-05-06 12:22 | 14.51417 | 121.01581 | 82 ft | 6 kts | 38° |
| 2026-05-06 12:23 | 14.51461 | 121.01581 | 82 ft | 7 kts | 330° |
| 2026-05-06 12:23 | 14.51502 | 121.01540 | 82 ft | 8 kts | 314° |
| 2026-05-06 12:23 | 14.51550 | 121.01491 | 82 ft | 10 kts | 315° |
| 2026-05-06 12:23 | 14.51604 | 121.01436 | 82 ft | 11 kts | 315° |
| 2026-05-06 12:24 | 14.51663 | 121.01374 | 82 ft | 12 kts | 315° |
| 2026-05-06 12:24 | 14.51726 | 121.01308 | 82 ft | 13 kts | 315° |
| 2026-05-06 12:24 | 14.51795 | 121.01238 | 82 ft | 14 kts | 314° |
| 2026-05-06 12:24 | 14.51866 | 121.01165 | 82 ft | 14 kts | 314° |
| 2026-05-06 12:25 | 14.51935 | 121.01093 | 82 ft | 13 kts | 315° |
| 2026-05-06 12:25 | 14.52001 | 121.01025 | 82 ft | 13 kts | 315° |
| 2026-05-06 12:25 | 14.52065 | 121.00959 | 82 ft | 12 kts | 315° |
| 2026-05-06 12:25 | 14.52118 | 121.00904 | 82 ft | 8 kts | 315° |
| 2026-05-06 12:26 | 14.52153 | 121.00876 | 82 ft | 5 kts | 346° |
| 2026-05-06 12:26 | 14.52187 | 121.00890 | 82 ft | 5 kts | 49° |
| 2026-05-06 12:26 | 14.52212 | 121.00919 | 82 ft | 5 kts | 45° |
| 2026-05-06 12:26 | 14.52236 | 121.00944 | 82 ft | 3 kts | 45° |
| 2026-05-06 12:27 | 14.52242 | 121.00951 | 82 ft | 0 kts | 45° |